Time,TemperatureF,DewpointF,PressureIn,WindDirection,WindDirectionDegrees,WindSpeedMPH,WindSpeedGustMPH,Humidity,HourlyPrecipIn,Conditions,Clouds,dailyrainin,SoftwareType,DateUTC
2013-05-07 00:11:00,53.6,49.8,30.01,SSE,157,0.0,-999.0,87,-99.99,,,0.00,Acu-Link.com,2013-05-07 04:11:00,
2013-05-07 00:27:00,53.1,49.9,30.01,East,90,2.2,-999.0,89,-99.99,,,0.00,Acu-Link.com,2013-05-07 04:27:00,
2013-05-07 00:42:00,53.1,49.9,30.02,ESE,112,2.7,-999.0,89,-99.99,,,0.00,Acu-Link.com,2013-05-07 04:42:00,
2013-05-07 00:57:00,53.2,50.0,30.01,ESE,112,0.0,-999.0,89,-99.99,,,0.00,Acu-Link.com,2013-05-07 04:57:00,
2013-05-07 01:12:00,52.9,49.7,30.01,SSE,157,0.0,-999.0,89,-99.99,,,0.00,Acu-Link.com,2013-05-07 05:12:00,
2013-05-07 01:28:00,51.8,48.7,30.01,South,180,0.0,-999.0,89,-99.99,,,0.00,Acu-Link.com,2013-05-07 05:28:00,
2013-05-07 01:43:00,51.3,48.5,30.00,East,90,0.0,-999.0,90,-99.99,,,0.00,Acu-Link.com,2013-05-07 05:43:00,
2013-05-07 01:58:00,51.1,48.6,30.00,South,180,0.0,-999.0,91,-99.99,,,0.00,Acu-Link.com,2013-05-07 05:58:00,
2013-05-07 02:13:00,50.5,48.0,29.99,ESE,112,0.0,-999.0,91,-99.99,,,0.00,Acu-Link.com,2013-05-07 06:13:00,
2013-05-07 02:29:00,50.2,48.0,30.00,South,180,0.0,-999.0,92,-99.99,,,0.00,Acu-Link.com,2013-05-07 06:29:00,
2013-05-07 02:44:00,49.3,47.1,29.99,SW,225,0.0,-999.0,92,-99.99,,,0.00,Acu-Link.com,2013-05-07 06:44:00,
2013-05-07 03:00:00,48.7,46.8,30.00,SSW,202,0.0,-999.0,93,-99.99,,,0.00,Acu-Link.com,2013-05-07 07:00:00,
2013-05-07 03:15:00,48.0,46.1,30.00,South,180,0.0,-999.0,93,-99.99,,,0.00,Acu-Link.com,2013-05-07 07:15:00,
2013-05-07 03:30:00,47.7,46.1,30.00,South,180,0.0,-999.0,94,-99.99,,,0.00,Acu-Link.com,2013-05-07 07:30:00,
2013-05-07 03:46:00,47.1,45.5,30.02,South,180,0.0,-999.0,94,-99.99,,,0.00,Acu-Link.com,2013-05-07 07:46:00,
2013-05-07 04:01:00,46.4,44.5,30.01,SSW,202,0.0,-999.0,93,-99.99,,,0.00,Acu-Link.com,2013-05-07 08:01:00,
2013-05-07 04:16:00,46.2,44.3,30.02,SW,225,0.0,-999.0,93,-99.99,,,0.00,Acu-Link.com,2013-05-07 08:16:00,
2013-05-07 04:31:00,46.0,44.4,30.01,ESE,112,0.0,-999.0,94,-99.99,,,0.00,Acu-Link.com,2013-05-07 08:31:00,
2013-05-07 04:47:00,45.9,44.5,30.01,WSW,247,1.1,-999.0,95,-99.99,,,0.00,Acu-Link.com,2013-05-07 08:47:00,
2013-05-07 05:02:00,45.7,44.4,30.00,SSW,202,0.0,-999.0,95,-99.99,,,0.00,Acu-Link.com,2013-05-07 09:02:00,
2013-05-07 05:17:00,45.1,44.0,30.01,WNW,292,0.0,-999.0,96,-99.99,,,0.00,Acu-Link.com,2013-05-07 09:17:00,
2013-05-07 05:32:00,45.0,43.9,30.01,ESE,112,1.1,-999.0,96,-99.99,,,0.00,Acu-Link.com,2013-05-07 09:32:00,
2013-05-07 05:47:00,45.0,43.9,30.01,SW,225,0.0,-999.0,96,-99.99,,,0.00,Acu-Link.com,2013-05-07 09:47:00,
2013-05-07 06:03:00,44.6,43.5,30.02,ENE,67,0.0,-999.0,96,-99.99,,,0.00,Acu-Link.com,2013-05-07 10:03:00,
2013-05-07 06:18:00,44.8,43.7,30.02,ESE,112,0.0,-999.0,96,-99.99,,,0.00,Acu-Link.com,2013-05-07 10:18:00,
2013-05-07 06:33:00,47.3,46.5,30.03,ESE,112,0.0,-999.0,97,-99.99,,,0.00,Acu-Link.com,2013-05-07 10:33:00,
2013-05-07 06:48:00,50.0,48.6,30.02,South,180,0.0,-999.0,95,-99.99,,,0.00,Acu-Link.com,2013-05-07 10:48:00,
2013-05-07 07:04:00,52.9,50.3,30.02,NE,45,0.0,-999.0,91,-99.99,,,0.00,Acu-Link.com,2013-05-07 11:04:00,
2013-05-07 07:19:00,57.0,51.6,30.03,North,0,1.7,-999.0,82,-99.99,,,0.00,Acu-Link.com,2013-05-07 11:19:00,
2013-05-07 07:34:00,61.0,52.3,30.02,East,90,1.1,-999.0,73,-99.99,,,0.00,Acu-Link.com,2013-05-07 11:34:00,
2013-05-07 07:49:00,55.4,51.3,30.02,NE,45,2.2,-999.0,86,-99.99,,,0.00,Acu-Link.com,2013-05-07 11:49:00,
2013-05-07 08:05:00,56.8,53.0,30.02,East,90,3.2,-999.0,87,-99.99,,,0.00,Acu-Link.com,2013-05-07 12:05:00,
2013-05-07 08:20:00,60.1,53.6,30.02,ENE,67,0.0,-999.0,79,-99.99,,,0.00,Acu-Link.com,2013-05-07 12:20:00,
2013-05-07 08:35:00,62.4,54.4,30.02,NNE,22,1.7,-999.0,75,-99.99,,,0.00,Acu-Link.com,2013-05-07 12:35:00,
2013-05-07 08:51:00,61.9,54.6,30.02,NE,45,3.2,-999.0,77,-99.99,,,0.00,Acu-Link.com,2013-05-07 12:51:00,
2013-05-07 09:06:00,64.0,55.2,30.03,SSW,202,2.2,-999.0,73,-99.99,,,0.00,Acu-Link.com,2013-05-07 13:06:00,
2013-05-07 09:21:00,65.8,55.7,30.02,SSW,202,1.7,-999.0,70,-99.99,,,0.00,Acu-Link.com,2013-05-07 13:21:00,
2013-05-07 09:36:00,66.6,55.7,30.01,WSW,247,1.7,-999.0,68,-99.99,,,0.00,Acu-Link.com,2013-05-07 13:36:00,
2013-05-07 09:52:00,67.8,56.4,30.02,East,90,2.2,-999.0,67,-99.99,,,0.00,Acu-Link.com,2013-05-07 13:52:00,
2013-05-07 10:07:00,68.5,56.3,30.01,North,0,1.7,-999.0,65,-99.99,,,0.00,Acu-Link.com,2013-05-07 14:07:00,
2013-05-07 10:22:00,69.1,56.4,30.01,ESE,112,3.7,-999.0,64,-99.99,,,0.00,Acu-Link.com,2013-05-07 14:22:00,
2013-05-07 10:37:00,70.5,57.3,30.00,East,90,1.7,-999.0,63,-99.99,,,0.00,Acu-Link.com,2013-05-07 14:37:00,
2013-05-07 10:53:00,71.8,56.7,30.00,SSW,202,4.7,-999.0,59,-99.99,,,0.00,Acu-Link.com,2013-05-07 14:53:00,
2013-05-07 11:08:00,71.4,54.9,29.99,SE,135,4.2,-999.0,56,-99.99,,,0.00,Acu-Link.com,2013-05-07 15:08:00,
2013-05-07 11:23:00,72.7,55.1,29.99,ESE,112,3.2,-999.0,54,-99.99,,,0.00,Acu-Link.com,2013-05-07 15:23:00,
2013-05-07 11:38:00,73.8,55.1,29.98,SSE,157,2.7,-999.0,52,-99.99,,,0.00,Acu-Link.com,2013-05-07 15:38:00,
2013-05-07 11:54:00,75.0,54.5,29.98,East,90,6.3,-999.0,49,-99.99,,,0.00,Acu-Link.com,2013-05-07 15:54:00,
2013-05-07 12:09:00,74.5,54.1,29.97,NE,45,3.7,-999.0,49,-99.99,,,0.00,Acu-Link.com,2013-05-07 16:09:00,
2013-05-07 12:24:00,75.0,53.4,29.97,NE,45,5.8,-999.0,47,-99.99,,,0.00,Acu-Link.com,2013-05-07 16:24:00,
2013-05-07 12:40:00,75.9,53.6,29.96,South,180,2.2,-999.0,46,-99.99,,,0.00,Acu-Link.com,2013-05-07 16:40:00,
2013-05-07 12:55:00,76.1,53.2,29.95,East,90,6.3,-999.0,45,-99.99,,,0.00,Acu-Link.com,2013-05-07 16:55:00,
2013-05-07 13:10:00,74.8,52.6,29.95,ENE,67,5.8,-999.0,46,-99.99,,,0.00,Acu-Link.com,2013-05-07 17:10:00,
2013-05-07 13:25:00,74.5,51.1,29.94,SSE,157,4.2,-999.0,44,-99.99,,,0.00,Acu-Link.com,2013-05-07 17:25:00,
2013-05-07 13:41:00,75.4,52.6,29.94,East,90,3.7,-999.0,45,-99.99,,,0.00,Acu-Link.com,2013-05-07 17:41:00,
2013-05-07 13:56:00,76.8,53.2,29.93,ENE,67,5.3,-999.0,44,-99.99,,,0.00,Acu-Link.com,2013-05-07 17:56:00,
2013-05-07 14:11:00,75.9,51.8,29.92,SE,135,4.7,-999.0,43,-99.99,,,0.00,Acu-Link.com,2013-05-07 18:11:00,
2013-05-07 14:26:00,77.9,52.9,29.92,East,90,2.7,-999.0,42,-99.99,,,0.00,Acu-Link.com,2013-05-07 18:26:00,
2013-05-07 14:42:00,78.6,52.9,29.92,SSW,202,4.2,-999.0,41,-99.99,,,0.00,Acu-Link.com,2013-05-07 18:42:00,
2013-05-07 14:57:00,78.6,51.6,29.91,East,90,5.8,-999.0,39,-99.99,,,0.00,Acu-Link.com,2013-05-07 18:57:00,
2013-05-07 15:13:00,78.1,51.1,29.91,West,270,4.7,-999.0,39,-99.99,,,0.00,Acu-Link.com,2013-05-07 19:13:00,
2013-05-07 15:28:00,78.3,50.6,29.90,ESE,112,7.8,-999.0,38,-99.99,,,0.00,Acu-Link.com,2013-05-07 19:28:00,
2013-05-07 15:43:00,75.7,51.0,29.90,SSE,157,3.7,-999.0,42,-99.99,,,0.00,Acu-Link.com,2013-05-07 19:43:00,
2013-05-07 15:58:00,77.7,53.4,29.90,East,90,5.3,-999.0,43,-99.99,,,0.00,Acu-Link.com,2013-05-07 19:58:00,
2013-05-07 16:13:00,78.4,50.0,29.89,ESE,112,4.7,-999.0,37,-99.99,,,0.00,Acu-Link.com,2013-05-07 20:13:00,
2013-05-07 16:28:00,81.1,53.8,29.89,ESE,112,6.3,-999.0,39,-99.99,,,0.00,Acu-Link.com,2013-05-07 20:28:00,
2013-05-07 16:43:00,77.7,51.4,29.89,WNW,292,3.2,-999.0,40,-99.99,,,0.00,Acu-Link.com,2013-05-07 20:43:00,
2013-05-07 16:59:00,78.1,51.8,29.89,East,90,7.8,-999.0,40,-99.99,,,0.00,Acu-Link.com,2013-05-07 20:59:00,
2013-05-07 17:14:00,78.1,52.5,29.89,ESE,112,6.3,-999.0,41,-99.99,,,0.00,Acu-Link.com,2013-05-07 21:14:00,
2013-05-07 17:29:00,76.8,51.3,29.88,SE,135,4.2,-999.0,41,-99.99,,,0.00,Acu-Link.com,2013-05-07 21:29:00,
2013-05-07 17:44:00,76.6,50.5,29.88,ESE,112,2.7,-999.0,40,-99.99,,,0.00,Acu-Link.com,2013-05-07 21:44:00,
2013-05-07 17:59:00,75.9,50.5,29.88,ESE,112,6.8,-999.0,41,-99.99,,,0.00,Acu-Link.com,2013-05-07 21:59:00,
2013-05-07 18:14:00,74.8,50.2,29.89,South,180,5.3,-999.0,42,-99.99,,,0.00,Acu-Link.com,2013-05-07 22:14:00,
2013-05-07 18:29:00,74.5,50.5,29.88,East,90,4.2,-999.0,43,-99.99,,,0.00,Acu-Link.com,2013-05-07 22:29:00,
2013-05-07 18:45:00,73.0,52.7,29.89,East,90,2.2,-999.0,49,-99.99,,,0.00,Acu-Link.com,2013-05-07 22:45:00,
2013-05-07 19:00:00,71.6,52.0,29.90,ESE,112,4.7,-999.0,50,-99.99,,,0.00,Acu-Link.com,2013-05-07 23:00:00,
2013-05-07 19:15:00,70.5,51.5,29.90,SSE,157,3.2,-999.0,51,-99.99,,,0.00,Acu-Link.com,2013-05-07 23:15:00,
2013-05-07 19:30:00,70.0,52.1,29.91,SSW,202,6.8,-999.0,53,-99.99,,,0.00,Acu-Link.com,2013-05-07 23:30:00,
2013-05-07 19:46:00,69.4,52.0,29.93,SSE,157,4.2,-999.0,54,-99.99,,,0.00,Acu-Link.com,2013-05-07 23:46:00,
2013-05-07 20:01:00,68.9,52.5,29.92,ESE,112,5.8,-999.0,56,-99.99,,,0.00,Acu-Link.com,2013-05-08 00:01:00,
2013-05-07 20:16:00,68.4,52.6,29.93,ESE,112,5.8,-999.0,57,-99.99,,,0.00,Acu-Link.com,2013-05-08 00:16:00,
2013-05-07 20:31:00,67.8,52.0,29.92,ESE,112,2.2,-999.0,57,-99.99,,,0.00,Acu-Link.com,2013-05-08 00:31:00,
2013-05-07 20:46:00,67.6,51.8,29.92,SSE,157,1.7,-999.0,57,-99.99,,,0.00,Acu-Link.com,2013-05-08 00:46:00,
2013-05-07 21:01:00,66.9,52.1,29.93,ESE,112,0.0,-999.0,59,-99.99,,,0.00,Acu-Link.com,2013-05-08 01:01:00,
2013-05-07 21:17:00,66.2,52.3,29.93,West,270,0.0,-999.0,61,-99.99,,,0.00,Acu-Link.com,2013-05-08 01:17:00,
2013-05-07 21:32:00,65.7,52.8,29.94,SSE,157,1.7,-999.0,63,-99.99,,,0.00,Acu-Link.com,2013-05-08 01:32:00,
2013-05-07 21:47:00,66.2,53.2,29.94,NNE,22,2.7,-999.0,63,-99.99,,,0.00,Acu-Link.com,2013-05-08 01:47:00,
2013-05-07 22:02:00,66.2,53.7,29.94,East,90,2.7,-999.0,64,-99.99,,,0.00,Acu-Link.com,2013-05-08 02:02:00,
2013-05-07 22:17:00,66.0,54.3,29.94,NE,45,2.2,-999.0,66,-99.99,,,0.00,Acu-Link.com,2013-05-08 02:17:00,
2013-05-07 22:33:00,65.5,54.2,29.94,NE,45,3.2,-999.0,67,-99.99,,,0.00,Acu-Link.com,2013-05-08 02:33:00,
2013-05-07 22:48:00,65.1,54.3,29.93,East,90,1.7,-999.0,68,-99.99,,,0.00,Acu-Link.com,2013-05-08 02:48:00,
2013-05-07 23:03:00,64.9,54.9,29.94,East,90,2.7,-999.0,70,-99.99,,,0.00,Acu-Link.com,2013-05-08 03:03:00,
2013-05-07 23:19:00,64.6,55.0,29.94,ESE,112,1.1,-999.0,71,-99.99,,,0.00,Acu-Link.com,2013-05-08 03:19:00,
2013-05-07 23:34:00,64.4,54.8,29.94,ESE,112,1.7,-999.0,71,-99.99,,,0.00,Acu-Link.com,2013-05-08 03:34:00,
2013-05-07 23:49:00,64.2,55.0,29.95,SSE,157,1.7,-999.0,72,-99.99,,,0.00,Acu-Link.com,2013-05-08 03:49:00,